sensor_id;sensor_type;location;lat;lon;timestamp;temperature;humidity
63017;DHT22;50274;45.640;11.756;2023-10-19T00:01:08;12.60;79.40
63017;DHT22;50274;45.640;11.756;2023-10-19T00:03:37;12.60;79.40
63017;DHT22;50274;45.640;11.756;2023-10-19T00:06:03;12.60;79.40
63017;DHT22;50274;45.640;11.756;2023-10-19T00:08:31;12.70;79.40
63017;DHT22;50274;45.640;11.756;2023-10-19T00:11:10;12.60;79.40
63017;DHT22;50274;45.640;11.756;2023-10-19T00:13:38;12.70;79.40
63017;DHT22;50274;45.640;11.756;2023-10-19T00:16:08;12.60;80.10
63017;DHT22;50274;45.640;11.756;2023-10-19T00:18:46;12.60;79.50
63017;DHT22;50274;45.640;11.756;2023-10-19T00:21:15;12.60;79.50
63017;DHT22;50274;45.640;11.756;2023-10-19T00:23:53;12.60;79.50
63017;DHT22;50274;45.640;11.756;2023-10-19T00:26:30;12.60;79.50
63017;DHT22;50274;45.640;11.756;2023-10-19T00:28:56;12.60;79.50
63017;DHT22;50274;45.640;11.756;2023-10-19T00:31:23;12.60;79.60
63017;DHT22;50274;45.640;11.756;2023-10-19T00:33:50;12.70;79.50
63017;DHT22;50274;45.640;11.756;2023-10-19T00:36:20;12.70;79.50
63017;DHT22;50274;45.640;11.756;2023-10-19T00:38:47;12.60;79.50
63017;DHT22;50274;45.640;11.756;2023-10-19T00:41:21;12.70;79.60
63017;DHT22;50274;45.640;11.756;2023-10-19T00:43:49;12.70;79.50
63017;DHT22;50274;45.640;11.756;2023-10-19T00:46:16;12.70;79.50
63017;DHT22;50274;45.640;11.756;2023-10-19T00:48:49;12.70;79.60
63017;DHT22;50274;45.640;11.756;2023-10-19T00:51:17;12.70;79.60
63017;DHT22;50274;45.640;11.756;2023-10-19T00:54:17;12.70;79.70
63017;DHT22;50274;45.640;11.756;2023-10-19T00:56:51;12.70;79.60
63017;DHT22;50274;45.640;11.756;2023-10-19T00:59:19;12.70;79.50
63017;DHT22;50274;45.640;11.756;2023-10-19T01:01:56;12.70;79.50
63017;DHT22;50274;45.640;11.756;2023-10-19T01:04:41;12.80;79.40
63017;DHT22;50274;45.640;11.756;2023-10-19T01:07:11;12.70;79.40
63017;DHT22;50274;45.640;11.756;2023-10-19T01:09:42;12.70;79.60
63017;DHT22;50274;45.640;11.756;2023-10-19T01:12:09;12.70;79.70
63017;DHT22;50274;45.640;11.756;2023-10-19T01:17:34;12.80;79.60
63017;DHT22;50274;45.640;11.756;2023-10-19T01:20:11;12.70;79.60
63017;DHT22;50274;45.640;11.756;2023-10-19T01:25:15;12.80;79.60
63017;DHT22;50274;45.640;11.756;2023-10-19T01:27:49;12.80;79.50
63017;DHT22;50274;45.640;11.756;2023-10-19T01:30:20;12.80;79.50
63017;DHT22;50274;45.640;11.756;2023-10-19T01:32:46;12.80;79.50
63017;DHT22;50274;45.640;11.756;2023-10-19T01:35:11;12.80;79.60
63017;DHT22;50274;45.640;11.756;2023-10-19T01:37:37;12.80;79.60
63017;DHT22;50274;45.640;11.756;2023-10-19T01:40:04;12.80;79.70
63017;DHT22;50274;45.640;11.756;2023-10-19T01:42:30;12.80;79.70
63017;DHT22;50274;45.640;11.756;2023-10-19T01:44:56;12.80;79.70
63017;DHT22;50274;45.640;11.756;2023-10-19T01:47:22;12.80;79.80
63017;DHT22;50274;45.640;11.756;2023-10-19T01:49:49;12.80;79.80
63017;DHT22;50274;45.640;11.756;2023-10-19T01:52:18;12.80;79.80
63017;DHT22;50274;45.640;11.756;2023-10-19T01:54:44;12.80;80.00
63017;DHT22;50274;45.640;11.756;2023-10-19T01:57:10;12.80;80.00
63017;DHT22;50274;45.640;11.756;2023-10-19T01:59:38;12.80;80.00
63017;DHT22;50274;45.640;11.756;2023-10-19T02:02:03;12.80;80.10
63017;DHT22;50274;45.640;11.756;2023-10-19T02:04:29;12.80;80.10
63017;DHT22;50274;45.640;11.756;2023-10-19T02:06:59;12.80;80.10
63017;DHT22;50274;45.640;11.756;2023-10-19T02:09:26;12.80;80.20
63017;DHT22;50274;45.640;11.756;2023-10-19T02:11:55;12.80;80.10
63017;DHT22;50274;45.640;11.756;2023-10-19T02:14:23;12.80;80.10
63017;DHT22;50274;45.640;11.756;2023-10-19T02:16:53;12.90;80.10
63017;DHT22;50274;45.640;11.756;2023-10-19T02:19:22;12.90;80.10
63017;DHT22;50274;45.640;11.756;2023-10-19T02:21:58;12.80;80.10
63017;DHT22;50274;45.640;11.756;2023-10-19T02:24:24;12.80;80.10
63017;DHT22;50274;45.640;11.756;2023-10-19T02:26:53;12.80;80.20
63017;DHT22;50274;45.640;11.756;2023-10-19T02:29:20;12.80;80.20
63017;DHT22;50274;45.640;11.756;2023-10-19T02:31:47;12.80;80.20
63017;DHT22;50274;45.640;11.756;2023-10-19T02:34:14;12.80;80.20
63017;DHT22;50274;45.640;11.756;2023-10-19T02:36:41;12.80;80.20
63017;DHT22;50274;45.640;11.756;2023-10-19T02:39:12;12.80;80.30
63017;DHT22;50274;45.640;11.756;2023-10-19T02:41:48;12.80;80.30
63017;DHT22;50274;45.640;11.756;2023-10-19T02:44:15;12.80;80.30
63017;DHT22;50274;45.640;11.756;2023-10-19T02:46:41;12.80;80.20
63017;DHT22;50274;45.640;11.756;2023-10-19T02:49:08;12.80;80.40
63017;DHT22;50274;45.640;11.756;2023-10-19T02:51:42;12.90;80.50
63017;DHT22;50274;45.640;11.756;2023-10-19T02:54:12;12.90;80.50
63017;DHT22;50274;45.640;11.756;2023-10-19T02:56:49;12.80;80.50
63017;DHT22;50274;45.640;11.756;2023-10-19T02:59:17;12.80;80.50
63017;DHT22;50274;45.640;11.756;2023-10-19T03:01:51;12.80;80.50
63017;DHT22;50274;45.640;11.756;2023-10-19T03:04:18;12.90;80.60
63017;DHT22;50274;45.640;11.756;2023-10-19T03:06:44;12.90;80.60
63017;DHT22;50274;45.640;11.756;2023-10-19T03:09:10;12.90;80.50
63017;DHT22;50274;45.640;11.756;2023-10-19T03:11:43;12.90;80.60
63017;DHT22;50274;45.640;11.756;2023-10-19T03:14:10;12.90;80.50
63017;DHT22;50274;45.640;11.756;2023-10-19T03:16:38;12.90;80.50
63017;DHT22;50274;45.640;11.756;2023-10-19T03:19:08;12.90;80.50
63017;DHT22;50274;45.640;11.756;2023-10-19T03:21:35;12.90;80.40
63017;DHT22;50274;45.640;11.756;2023-10-19T03:24:14;13.00;80.50
63017;DHT22;50274;45.640;11.756;2023-10-19T03:27:09;13.00;80.50
63017;DHT22;50274;45.640;11.756;2023-10-19T03:29:47;13.00;80.60
63017;DHT22;50274;45.640;11.756;2023-10-19T03:32:19;13.00;80.50
63017;DHT22;50274;45.640;11.756;2023-10-19T03:34:52;13.00;80.50
63017;DHT22;50274;45.640;11.756;2023-10-19T03:37:22;13.00;80.60
63017;DHT22;50274;45.640;11.756;2023-10-19T03:39:48;13.00;80.60
63017;DHT22;50274;45.640;11.756;2023-10-19T03:42:14;13.00;80.60
63017;DHT22;50274;45.640;11.756;2023-10-19T03:44:40;13.00;80.60
63017;DHT22;50274;45.640;11.756;2023-10-19T03:47:16;13.00;80.50
63017;DHT22;50274;45.640;11.756;2023-10-19T03:49:48;13.00;80.60
63017;DHT22;50274;45.640;11.756;2023-10-19T03:52:14;13.00;80.60
63017;DHT22;50274;45.640;11.756;2023-10-19T03:54:41;13.00;80.60
63017;DHT22;50274;45.640;11.756;2023-10-19T03:57:11;13.00;80.60
63017;DHT22;50274;45.640;11.756;2023-10-19T03:59:51;13.00;80.60
63017;DHT22;50274;45.640;11.756;2023-10-19T04:02:27;13.10;80.60
63017;DHT22;50274;45.640;11.756;2023-10-19T04:05:01;13.10;80.60
63017;DHT22;50274;45.640;11.756;2023-10-19T04:07:28;13.10;80.70
63017;DHT22;50274;45.640;11.756;2023-10-19T04:09:57;13.10;80.70
63017;DHT22;50274;45.640;11.756;2023-10-19T04:12:27;13.10;80.80
63017;DHT22;50274;45.640;11.756;2023-10-19T04:14:57;13.10;80.70
63017;DHT22;50274;45.640;11.756;2023-10-19T04:17:23;13.00;80.70
63017;DHT22;50274;45.640;11.756;2023-10-19T04:19:52;13.10;80.70
63017;DHT22;50274;45.640;11.756;2023-10-19T04:22:18;13.10;80.80
63017;DHT22;50274;45.640;11.756;2023-10-19T04:24:53;13.10;80.80
63017;DHT22;50274;45.640;11.756;2023-10-19T04:27:19;13.10;80.80
63017;DHT22;50274;45.640;11.756;2023-10-19T04:29:52;13.10;80.80
63017;DHT22;50274;45.640;11.756;2023-10-19T04:32:17;13.10;80.80
63017;DHT22;50274;45.640;11.756;2023-10-19T04:34:51;13.10;80.90
63017;DHT22;50274;45.640;11.756;2023-10-19T04:37:18;13.10;81.00
63017;DHT22;50274;45.640;11.756;2023-10-19T04:39:47;13.10;80.90
63017;DHT22;50274;45.640;11.756;2023-10-19T04:42:15;13.10;81.00
63017;DHT22;50274;45.640;11.756;2023-10-19T04:44:41;13.10;81.00
63017;DHT22;50274;45.640;11.756;2023-10-19T04:47:07;13.10;80.90
63017;DHT22;50274;45.640;11.756;2023-10-19T04:49:32;13.20;81.00
63017;DHT22;50274;45.640;11.756;2023-10-19T04:51:58;13.10;80.80
63017;DHT22;50274;45.640;11.756;2023-10-19T04:54:24;13.10;80.90
63017;DHT22;50274;45.640;11.756;2023-10-19T04:56:50;13.20;80.90
63017;DHT22;50274;45.640;11.756;2023-10-19T04:59:18;13.20;81.10
63017;DHT22;50274;45.640;11.756;2023-10-19T05:01:44;13.20;81.10
63017;DHT22;50274;45.640;11.756;2023-10-19T05:04:10;13.20;81.10
63017;DHT22;50274;45.640;11.756;2023-10-19T05:06:41;13.20;81.30
63017;DHT22;50274;45.640;11.756;2023-10-19T05:09:07;13.20;81.30
63017;DHT22;50274;45.640;11.756;2023-10-19T05:11:33;13.20;81.20
63017;DHT22;50274;45.640;11.756;2023-10-19T05:13:59;13.20;81.20
63017;DHT22;50274;45.640;11.756;2023-10-19T05:16:25;13.20;81.30
63017;DHT22;50274;45.640;11.756;2023-10-19T05:18:52;13.30;81.50
63017;DHT22;50274;45.640;11.756;2023-10-19T05:21:17;13.30;81.20
63017;DHT22;50274;45.640;11.756;2023-10-19T05:23:43;13.30;81.30
63017;DHT22;50274;45.640;11.756;2023-10-19T05:26:09;13.30;81.30
63017;DHT22;50274;45.640;11.756;2023-10-19T05:28:35;13.30;81.30
63017;DHT22;50274;45.640;11.756;2023-10-19T05:31:01;13.30;81.30
63017;DHT22;50274;45.640;11.756;2023-10-19T05:33:30;13.30;81.40
63017;DHT22;50274;45.640;11.756;2023-10-19T05:35:56;13.30;81.30
63017;DHT22;50274;45.640;11.756;2023-10-19T05:38:22;13.30;81.50
63017;DHT22;50274;45.640;11.756;2023-10-19T05:40:48;13.30;81.50
63017;DHT22;50274;45.640;11.756;2023-10-19T05:43:15;13.30;81.50
63017;DHT22;50274;45.640;11.756;2023-10-19T05:45:41;13.30;81.50
63017;DHT22;50274;45.640;11.756;2023-10-19T05:48:07;13.30;81.60
63017;DHT22;50274;45.640;11.756;2023-10-19T05:50:35;13.30;81.70
63017;DHT22;50274;45.640;11.756;2023-10-19T05:53:04;13.30;81.60
63017;DHT22;50274;45.640;11.756;2023-10-19T05:55:30;13.30;81.70
63017;DHT22;50274;45.640;11.756;2023-10-19T05:57:57;13.30;81.70
63017;DHT22;50274;45.640;11.756;2023-10-19T06:00:23;13.30;81.70
63017;DHT22;50274;45.640;11.756;2023-10-19T06:02:52;13.30;81.90
63017;DHT22;50274;45.640;11.756;2023-10-19T06:05:18;13.30;82.00
63017;DHT22;50274;45.640;11.756;2023-10-19T06:07:46;13.40;82.00
63017;DHT22;50274;45.640;11.756;2023-10-19T06:10:15;13.40;82.10
63017;DHT22;50274;45.640;11.756;2023-10-19T06:12:45;13.40;82.20
63017;DHT22;50274;45.640;11.756;2023-10-19T06:15:12;13.40;82.20
63017;DHT22;50274;45.640;11.756;2023-10-19T06:17:39;13.40;82.10
63017;DHT22;50274;45.640;11.756;2023-10-19T06:20:10;13.40;82.40
63017;DHT22;50274;45.640;11.756;2023-10-19T06:22:58;13.40;82.10
63017;DHT22;50274;45.640;11.756;2023-10-19T06:25:31;13.40;82.10
63017;DHT22;50274;45.640;11.756;2023-10-19T06:27:57;13.50;82.00
63017;DHT22;50274;45.640;11.756;2023-10-19T06:30:23;13.50;82.20
63017;DHT22;50274;45.640;11.756;2023-10-19T06:32:52;13.50;82.00
63017;DHT22;50274;45.640;11.756;2023-10-19T06:35:19;13.50;82.10
63017;DHT22;50274;45.640;11.756;2023-10-19T06:37:45;13.50;82.10
63017;DHT22;50274;45.640;11.756;2023-10-19T06:40:12;13.60;82.00
63017;DHT22;50274;45.640;11.756;2023-10-19T06:42:41;13.50;82.10
63017;DHT22;50274;45.640;11.756;2023-10-19T06:45:07;13.60;82.20
63017;DHT22;50274;45.640;11.756;2023-10-19T06:47:35;13.60;82.20
63017;DHT22;50274;45.640;11.756;2023-10-19T06:50:06;13.60;82.20
63017;DHT22;50274;45.640;11.756;2023-10-19T06:52:39;13.60;82.10
63017;DHT22;50274;45.640;11.756;2023-10-19T06:55:07;13.60;82.20
63017;DHT22;50274;45.640;11.756;2023-10-19T06:57:48;13.60;82.40
63017;DHT22;50274;45.640;11.756;2023-10-19T07:00:19;13.60;82.30
63017;DHT22;50274;45.640;11.756;2023-10-19T07:02:46;13.60;82.20
63017;DHT22;50274;45.640;11.756;2023-10-19T07:05:13;13.60;82.20
63017;DHT22;50274;45.640;11.756;2023-10-19T07:07:41;13.70;82.20
63017;DHT22;50274;45.640;11.756;2023-10-19T07:10:08;13.70;82.10
63017;DHT22;50274;45.640;11.756;2023-10-19T07:12:36;13.70;82.30
63017;DHT22;50274;45.640;11.756;2023-10-19T07:15:05;13.70;82.20
63017;DHT22;50274;45.640;11.756;2023-10-19T07:17:36;13.70;82.30
63017;DHT22;50274;45.640;11.756;2023-10-19T07:20:05;13.70;82.20
63017;DHT22;50274;45.640;11.756;2023-10-19T07:22:32;13.70;82.20
63017;DHT22;50274;45.640;11.756;2023-10-19T07:24:58;13.70;82.30
63017;DHT22;50274;45.640;11.756;2023-10-19T07:27:25;13.80;82.20
63017;DHT22;50274;45.640;11.756;2023-10-19T07:29:54;13.80;82.40
63017;DHT22;50274;45.640;11.756;2023-10-19T07:32:20;13.80;82.30
63017;DHT22;50274;45.640;11.756;2023-10-19T07:34:47;13.80;82.40
63017;DHT22;50274;45.640;11.756;2023-10-19T07:37:13;13.90;82.30
63017;DHT22;50274;45.640;11.756;2023-10-19T07:39:47;13.90;82.10
63017;DHT22;50274;45.640;11.756;2023-10-19T07:42:14;14.00;82.10
63017;DHT22;50274;45.640;11.756;2023-10-19T07:44:41;14.00;82.00
63017;DHT22;50274;45.640;11.756;2023-10-19T07:47:06;14.10;82.00
63017;DHT22;50274;45.640;11.756;2023-10-19T07:49:36;14.10;82.00
63017;DHT22;50274;45.640;11.756;2023-10-19T07:52:05;14.10;82.00
63017;DHT22;50274;45.640;11.756;2023-10-19T07:54:34;14.10;82.10
63017;DHT22;50274;45.640;11.756;2023-10-19T07:57:01;14.10;81.90
63017;DHT22;50274;45.640;11.756;2023-10-19T07:59:34;14.10;82.00
63017;DHT22;50274;45.640;11.756;2023-10-19T08:02:01;14.10;82.20
63017;DHT22;50274;45.640;11.756;2023-10-19T08:04:28;14.20;82.30
63017;DHT22;50274;45.640;11.756;2023-10-19T08:06:54;14.20;82.50
63017;DHT22;50274;45.640;11.756;2023-10-19T08:09:22;14.20;82.50
63017;DHT22;50274;45.640;11.756;2023-10-19T08:11:52;14.20;82.60
63017;DHT22;50274;45.640;11.756;2023-10-19T08:14:22;14.30;82.70
63017;DHT22;50274;45.640;11.756;2023-10-19T08:16:51;14.30;82.80
63017;DHT22;50274;45.640;11.756;2023-10-19T08:19:18;14.30;82.80
63017;DHT22;50274;45.640;11.756;2023-10-19T08:21:45;14.40;82.90
63017;DHT22;50274;45.640;11.756;2023-10-19T08:24:12;14.40;83.00
63017;DHT22;50274;45.640;11.756;2023-10-19T08:26:42;14.50;83.10
63017;DHT22;50274;45.640;11.756;2023-10-19T08:29:08;14.50;83.10
63017;DHT22;50274;45.640;11.756;2023-10-19T08:31:41;14.50;83.10
63017;DHT22;50274;45.640;11.756;2023-10-19T08:34:08;14.60;83.00
63017;DHT22;50274;45.640;11.756;2023-10-19T08:36:40;14.60;83.00
63017;DHT22;50274;45.640;11.756;2023-10-19T08:39:09;14.60;82.90
63017;DHT22;50274;45.640;11.756;2023-10-19T08:41:39;14.60;82.90
63017;DHT22;50274;45.640;11.756;2023-10-19T08:44:07;14.70;82.90
63017;DHT22;50274;45.640;11.756;2023-10-19T08:46:43;14.70;83.00
63017;DHT22;50274;45.640;11.756;2023-10-19T08:49:14;14.80;83.50
63017;DHT22;50274;45.640;11.756;2023-10-19T08:51:45;14.80;83.50
63017;DHT22;50274;45.640;11.756;2023-10-19T08:54:12;14.80;83.50
63017;DHT22;50274;45.640;11.756;2023-10-19T08:56:40;14.80;83.60
63017;DHT22;50274;45.640;11.756;2023-10-19T08:59:11;14.90;83.60
63017;DHT22;50274;45.640;11.756;2023-10-19T09:01:37;14.90;83.50
63017;DHT22;50274;45.640;11.756;2023-10-19T09:04:04;14.90;83.80
63017;DHT22;50274;45.640;11.756;2023-10-19T09:06:37;15.00;83.50
63017;DHT22;50274;45.640;11.756;2023-10-19T09:09:14;15.00;83.60
63017;DHT22;50274;45.640;11.756;2023-10-19T09:11:48;15.10;83.80
63017;DHT22;50274;45.640;11.756;2023-10-19T09:14:15;15.10;83.70
63017;DHT22;50274;45.640;11.756;2023-10-19T09:16:56;15.20;83.40
63017;DHT22;50274;45.640;11.756;2023-10-19T09:19:39;15.30;83.40
63017;DHT22;50274;45.640;11.756;2023-10-19T09:22:05;15.30;83.40
63017;DHT22;50274;45.640;11.756;2023-10-19T09:24:43;15.40;83.30
63017;DHT22;50274;45.640;11.756;2023-10-19T09:27:10;15.50;83.30
63017;DHT22;50274;45.640;11.756;2023-10-19T09:29:38;15.50;83.20
63017;DHT22;50274;45.640;11.756;2023-10-19T09:32:05;15.60;83.90
63017;DHT22;50274;45.640;11.756;2023-10-19T09:34:32;15.70;83.30
63017;DHT22;50274;45.640;11.756;2023-10-19T09:37:00;15.80;83.00
63017;DHT22;50274;45.640;11.756;2023-10-19T09:39:32;15.90;82.70
63017;DHT22;50274;45.640;11.756;2023-10-19T09:42:02;16.00;82.50
63017;DHT22;50274;45.640;11.756;2023-10-19T09:44:45;16.00;82.40
63017;DHT22;50274;45.640;11.756;2023-10-19T09:47:18;16.00;82.40
63017;DHT22;50274;45.640;11.756;2023-10-19T09:49:47;16.00;82.40
63017;DHT22;50274;45.640;11.756;2023-10-19T09:52:16;16.10;82.30
63017;DHT22;50274;45.640;11.756;2023-10-19T09:57:53;16.20;82.20
63017;DHT22;50274;45.640;11.756;2023-10-19T10:00:21;16.30;82.00
63017;DHT22;50274;45.640;11.756;2023-10-19T10:02:51;16.30;81.90
63017;DHT22;50274;45.640;11.756;2023-10-19T10:10:43;16.30;81.80
63017;DHT22;50274;45.640;11.756;2023-10-19T10:15:58;16.30;82.10
63017;DHT22;50274;45.640;11.756;2023-10-19T10:18:34;16.40;81.70
63017;DHT22;50274;45.640;11.756;2023-10-19T10:26:19;16.40;81.50
63017;DHT22;50274;45.640;11.756;2023-10-19T10:31:44;16.30;81.40
63017;DHT22;50274;45.640;11.756;2023-10-19T10:34:57;16.30;81.70
63017;DHT22;50274;45.640;11.756;2023-10-19T10:37:08;16.30;81.50
63017;DHT22;50274;45.640;11.756;2023-10-19T10:39:36;16.40;81.60
63017;DHT22;50274;45.640;11.756;2023-10-19T10:42:03;16.40;82.70
63017;DHT22;50274;45.640;11.756;2023-10-19T10:44:43;16.60;82.30
63017;DHT22;50274;45.640;11.756;2023-10-19T10:47:27;16.70;81.60
63017;DHT22;50274;45.640;11.756;2023-10-19T10:49:59;16.70;81.40
63017;DHT22;50274;45.640;11.756;2023-10-19T10:52:35;16.70;81.50
63017;DHT22;50274;45.640;11.756;2023-10-19T10:55:12;16.70;81.50
63017;DHT22;50274;45.640;11.756;2023-10-19T10:57:39;16.70;81.40
63017;DHT22;50274;45.640;11.756;2023-10-19T11:00:06;16.70;81.50
63017;DHT22;50274;45.640;11.756;2023-10-19T11:02:41;16.70;81.40
63017;DHT22;50274;45.640;11.756;2023-10-19T11:05:15;16.70;81.70
63017;DHT22;50274;45.640;11.756;2023-10-19T11:10:30;16.60;81.40
63017;DHT22;50274;45.640;11.756;2023-10-19T11:13:04;16.60;81.70
63017;DHT22;50274;45.640;11.756;2023-10-19T11:15:30;16.60;81.60
63017;DHT22;50274;45.640;11.756;2023-10-19T11:17:56;16.60;81.50
63017;DHT22;50274;45.640;11.756;2023-10-19T11:20:23;16.60;81.40
63017;DHT22;50274;45.640;11.756;2023-10-19T11:22:51;16.60;81.80
63017;DHT22;50274;45.640;11.756;2023-10-19T11:25:23;16.60;81.60
63017;DHT22;50274;45.640;11.756;2023-10-19T11:27:49;16.50;81.60
63017;DHT22;50274;45.640;11.756;2023-10-19T11:30:29;16.50;81.80
63017;DHT22;50274;45.640;11.756;2023-10-19T11:32:57;16.50;81.70
63017;DHT22;50274;45.640;11.756;2023-10-19T11:35:25;16.60;81.80
63017;DHT22;50274;45.640;11.756;2023-10-19T11:37:57;16.60;81.60
63017;DHT22;50274;45.640;11.756;2023-10-19T11:40:25;16.60;81.70
63017;DHT22;50274;45.640;11.756;2023-10-19T11:42:52;16.60;81.80
63017;DHT22;50274;45.640;11.756;2023-10-19T11:45:18;16.60;81.70
63017;DHT22;50274;45.640;11.756;2023-10-19T11:47:45;16.60;81.60
63017;DHT22;50274;45.640;11.756;2023-10-19T11:50:12;16.60;81.60
63017;DHT22;50274;45.640;11.756;2023-10-19T11:52:45;16.60;81.60
63017;DHT22;50274;45.640;11.756;2023-10-19T11:55:15;16.60;81.90
63017;DHT22;50274;45.640;11.756;2023-10-19T11:57:44;16.60;81.80
63017;DHT22;50274;45.640;11.756;2023-10-19T12:00:11;16.60;82.30
63017;DHT22;50274;45.640;11.756;2023-10-19T12:02:47;16.60;82.20
63017;DHT22;50274;45.640;11.756;2023-10-19T12:05:13;16.60;82.00
63017;DHT22;50274;45.640;11.756;2023-10-19T12:07:40;16.60;82.00
63017;DHT22;50274;45.640;11.756;2023-10-19T12:10:08;16.60;82.20
63017;DHT22;50274;45.640;11.756;2023-10-19T12:12:35;16.60;82.10
63017;DHT22;50274;45.640;11.756;2023-10-19T12:15:03;16.60;82.20
63017;DHT22;50274;45.640;11.756;2023-10-19T12:17:30;16.60;82.10
63017;DHT22;50274;45.640;11.756;2023-10-19T12:19:56;16.60;82.10
63017;DHT22;50274;45.640;11.756;2023-10-19T12:22:22;16.60;82.20
63017;DHT22;50274;45.640;11.756;2023-10-19T12:24:50;16.60;82.10
63017;DHT22;50274;45.640;11.756;2023-10-19T12:27:17;16.60;82.10
63017;DHT22;50274;45.640;11.756;2023-10-19T12:29:43;16.60;82.40
63017;DHT22;50274;45.640;11.756;2023-10-19T12:32:09;16.60;82.80
63017;DHT22;50274;45.640;11.756;2023-10-19T12:34:40;16.70;82.40
63017;DHT22;50274;45.640;11.756;2023-10-19T12:37:06;16.70;82.30
63017;DHT22;50274;45.640;11.756;2023-10-19T12:39:35;16.70;82.30
63017;DHT22;50274;45.640;11.756;2023-10-19T12:42:04;16.70;82.50
63017;DHT22;50274;45.640;11.756;2023-10-19T12:44:30;16.70;82.60
63017;DHT22;50274;45.640;11.756;2023-10-19T12:46:57;16.70;82.50
63017;DHT22;50274;45.640;11.756;2023-10-19T12:49:24;16.70;82.40
63017;DHT22;50274;45.640;11.756;2023-10-19T12:51:52;16.70;82.30
63017;DHT22;50274;45.640;11.756;2023-10-19T12:54:18;16.60;82.40
63017;DHT22;50274;45.640;11.756;2023-10-19T12:56:44;16.70;82.40
63017;DHT22;50274;45.640;11.756;2023-10-19T12:59:10;16.70;82.50
63017;DHT22;50274;45.640;11.756;2023-10-19T13:01:36;16.70;82.50
63017;DHT22;50274;45.640;11.756;2023-10-19T13:04:03;16.70;82.40
63017;DHT22;50274;45.640;11.756;2023-10-19T13:06:39;16.70;82.40
63017;DHT22;50274;45.640;11.756;2023-10-19T13:09:06;16.70;82.90
63017;DHT22;50274;45.640;11.756;2023-10-19T13:11:34;16.70;82.60
63017;DHT22;50274;45.640;11.756;2023-10-19T13:14:00;16.70;82.50
63017;DHT22;50274;45.640;11.756;2023-10-19T13:16:26;16.70;82.70
63017;DHT22;50274;45.640;11.756;2023-10-19T13:18:53;16.70;83.10
63017;DHT22;50274;45.640;11.756;2023-10-19T13:21:19;16.60;83.10
63017;DHT22;50274;45.640;11.756;2023-10-19T13:23:53;16.60;83.40
63017;DHT22;50274;45.640;11.756;2023-10-19T13:26:19;16.60;83.60
63017;DHT22;50274;45.640;11.756;2023-10-19T13:28:46;16.50;83.90
63017;DHT22;50274;45.640;11.756;2023-10-19T13:31:12;16.50;84.10
63017;DHT22;50274;45.640;11.756;2023-10-19T13:33:41;16.50;84.10
63017;DHT22;50274;45.640;11.756;2023-10-19T13:36:09;16.50;84.20
63017;DHT22;50274;45.640;11.756;2023-10-19T13:38:35;16.40;84.30
63017;DHT22;50274;45.640;11.756;2023-10-19T13:41:05;16.40;84.50
63017;DHT22;50274;45.640;11.756;2023-10-19T13:43:36;16.30;84.40
63017;DHT22;50274;45.640;11.756;2023-10-19T13:46:01;16.30;84.40
63017;DHT22;50274;45.640;11.756;2023-10-19T13:48:28;16.40;84.40
63017;DHT22;50274;45.640;11.756;2023-10-19T13:50:53;16.40;84.50
63017;DHT22;50274;45.640;11.756;2023-10-19T13:53:26;16.40;84.70
63017;DHT22;50274;45.640;11.756;2023-10-19T13:55:52;16.30;84.50
63017;DHT22;50274;45.640;11.756;2023-10-19T13:58:18;16.30;84.50
63017;DHT22;50274;45.640;11.756;2023-10-19T14:00:44;16.30;84.60
63017;DHT22;50274;45.640;11.756;2023-10-19T14:03:13;16.30;84.60
63017;DHT22;50274;45.640;11.756;2023-10-19T14:05:42;16.30;84.60
63017;DHT22;50274;45.640;11.756;2023-10-19T14:08:11;16.30;84.80
63017;DHT22;50274;45.640;11.756;2023-10-19T14:10:37;16.30;84.70
63017;DHT22;50274;45.640;11.756;2023-10-19T14:13:07;16.30;84.70
63017;DHT22;50274;45.640;11.756;2023-10-19T14:15:33;16.30;84.70
63017;DHT22;50274;45.640;11.756;2023-10-19T14:18:00;16.30;84.80
63017;DHT22;50274;45.640;11.756;2023-10-19T14:20:29;16.30;84.90
63017;DHT22;50274;45.640;11.756;2023-10-19T14:22:56;16.20;84.80
63017;DHT22;50274;45.640;11.756;2023-10-19T14:25:22;16.30;84.80
63017;DHT22;50274;45.640;11.756;2023-10-19T14:27:50;16.20;84.90
63017;DHT22;50274;45.640;11.756;2023-10-19T14:30:22;16.20;84.90
63017;DHT22;50274;45.640;11.756;2023-10-19T14:32:48;16.20;84.80
63017;DHT22;50274;45.640;11.756;2023-10-19T14:35:16;16.20;84.80
63017;DHT22;50274;45.640;11.756;2023-10-19T14:37:46;16.20;84.80
63017;DHT22;50274;45.640;11.756;2023-10-19T14:40:20;16.20;84.90
63017;DHT22;50274;45.640;11.756;2023-10-19T14:43:13;16.20;84.90
63017;DHT22;50274;45.640;11.756;2023-10-19T14:45:44;16.20;84.90
63017;DHT22;50274;45.640;11.756;2023-10-19T14:48:10;16.20;85.10
63017;DHT22;50274;45.640;11.756;2023-10-19T14:50:36;16.20;84.90
63017;DHT22;50274;45.640;11.756;2023-10-19T14:53:03;16.20;84.90
63017;DHT22;50274;45.640;11.756;2023-10-19T14:55:29;16.20;84.80
63017;DHT22;50274;45.640;11.756;2023-10-19T14:57:55;16.20;84.90
63017;DHT22;50274;45.640;11.756;2023-10-19T15:00:24;16.20;84.90
63017;DHT22;50274;45.640;11.756;2023-10-19T15:02:57;16.20;84.80
63017;DHT22;50274;45.640;11.756;2023-10-19T15:05:29;16.20;84.90
63017;DHT22;50274;45.640;11.756;2023-10-19T15:07:55;16.20;84.80
63017;DHT22;50274;45.640;11.756;2023-10-19T15:10:26;16.30;84.80
63017;DHT22;50274;45.640;11.756;2023-10-19T15:12:54;16.20;84.90
63017;DHT22;50274;45.640;11.756;2023-10-19T15:15:21;16.20;84.80
63017;DHT22;50274;45.640;11.756;2023-10-19T15:17:47;16.20;84.90
63017;DHT22;50274;45.640;11.756;2023-10-19T15:20:15;16.20;85.10
63017;DHT22;50274;45.640;11.756;2023-10-19T15:22:43;16.10;85.00
63017;DHT22;50274;45.640;11.756;2023-10-19T15:25:10;16.10;85.10
63017;DHT22;50274;45.640;11.756;2023-10-19T15:27:41;16.10;85.10
63017;DHT22;50274;45.640;11.756;2023-10-19T15:30:09;16.10;85.30
63017;DHT22;50274;45.640;11.756;2023-10-19T15:32:38;16.10;85.30
63017;DHT22;50274;45.640;11.756;2023-10-19T15:35:07;16.10;85.30
63017;DHT22;50274;45.640;11.756;2023-10-19T15:37:36;16.10;85.20
63017;DHT22;50274;45.640;11.756;2023-10-19T15:40:02;16.20;85.20
63017;DHT22;50274;45.640;11.756;2023-10-19T15:42:30;16.20;85.40
63017;DHT22;50274;45.640;11.756;2023-10-19T15:44:56;16.10;85.30
63017;DHT22;50274;45.640;11.756;2023-10-19T15:47:22;16.10;85.40
63017;DHT22;50274;45.640;11.756;2023-10-19T15:49:54;16.10;85.40
63017;DHT22;50274;45.640;11.756;2023-10-19T15:52:26;16.10;85.40
63017;DHT22;50274;45.640;11.756;2023-10-19T15:54:57;16.10;85.40